首页
METAR-TAF:

METAR-TAF

机场 :

萨摩斯岛, 希腊

纬度: 37-42N, 经度: 026-55E, 海拔: 2米

当前天气观测

该预报发布于6小时和11分钟前的18:50 UTC
静风
温度 28°C
湿度 66%
气压 1006 hPa
能见度10公里或以上
1500米以下无云,无积雨云

METAR: LGSM 171850Z 00000KT CAVOK 28/21 Q1006

时间: 04:01 (01:01 UTC)

预报

该预报发布于2小时和1分钟前的23:00 UTC
预报有效从18日的 00点(UTC)到 18日的 09点(UTC)
风速8节,风向
能见度10公里或以上
少量云层高于2000英尺

TAF: LGSM 172300Z 1800/1809 17008KT 9999 FEW020

超过4000个机场的气象观测和天气预报(METAR&TAF报告)。

可查询的气象台以黄色和红色小点在地图上表示。

将鼠标移到小点上方,可查看气象台名称。

然后点击查看天气观测和预报。

如需切换地图:点击带黑十字的绿色按钮放大地图;点击带横线的绿色按钮缩小地图;或者点击绿色箭头查看邻近地区的地图。


METAR-TAF: